Time;durP1;ratioP1;P1;durP2;ratioP2;P2;SDS_P1;SDS_P2;PMS_P1;PMS_P2;Temp;Humidity;BMP_temperature;BMP_pressure;BME280_temperature;BME280_humidity;BME280_pressure;Samples;Min_cycle;Max_cycle;Signal;HPM_P1;HPM_P2
2021/07/08 00:02:22;;;;;;;;;;;;;;;14.22;85.62;99705.94;5034839;28;19923;-62
2021/07/08 00:04:47;;;;;;;;;;;;;;;14.17;85.52;99700.50;5035497;28;19975;-62
2021/07/08 00:07:12;;;;;;;;;;;;;;;14.33;85.05;99705.00;5035062;28;19917;-62
2021/07/08 00:09:38;;;;;;;;;;;;;;;14.32;84.82;99703.34;5035399;28;19913;-62
2021/07/08 00:12:03;;;;;;;;;;;;;;;14.13;84.35;99700.22;5034805;28;19923;-62
2021/07/08 00:14:29;;;;;;;;;;;;;;;14.08;84.57;99702.03;5035279;28;19917;-62
2021/07/08 00:16:54;;;;;;;;;;;;;;;14.01;85.51;99703.06;5034792;28;19917;-61
2021/07/08 00:19:19;;;;;;;;;;;;;;;13.94;85.82;99707.81;5034046;28;19975;-62
2021/07/08 00:21:44;;;;;;;;;;;;;;;14.01;85.61;99702.25;5034741;28;19936;-61
2021/07/08 00:24:10;;;;;;;;;;;;;;;13.92;85.88;99709.94;5035129;28;19982;-62
2021/07/08 00:26:35;;;;;;;;;;;;;;;14.01;86.12;99713.84;5034627;28;19917;-61
2021/07/08 00:29:00;;;;;;;;;;;;;;;13.89;86.38;99715.84;5034999;28;19913;-61
2021/07/08 00:31:25;;;;;;;;;;;;;;;13.81;86.82;99719.00;5022899;28;19918;-61
2021/07/08 00:33:51;;;;;;;;;;;;;;;13.90;86.38;99706.69;5015049;28;20419;-61
2021/07/08 00:36:16;;;;;;;;;;;;;;;13.92;85.45;99715.34;5024950;28;19917;-61
2021/07/08 00:38:41;;;;;;;;;;;;;;;13.85;85.34;99709.31;5034727;28;19920;-62
2021/07/08 00:41:06;;;;;;;;;;;;;;;13.80;85.17;99706.56;5032777;28;19979;-61
2021/07/08 00:43:32;;;;;;;;;;;;;;;13.77;86.52;99707.91;5034661;28;19913;-62
2021/07/08 00:45:57;;;;;;;;;;;;;;;13.77;85.95;99717.84;5034177;28;19978;-62
2021/07/08 00:48:23;;;;;;;;;;;;;;;13.73;87.08;99705.97;5034577;28;19920;-62
2021/07/08 00:50:48;;;;;;;;;;;;;;;13.62;87.31;99704.22;5034162;28;19967;-62
2021/07/08 00:53:16;;;;;;;;;;;;;;;13.70;87.63;99701.88;5034606;28;19913;-61
2021/07/08 00:55:42;;;;;;;;;;;;;;;13.88;87.11;99698.06;5028111;28;19921;-61
2021/07/08 00:58:09;;;;;;;;;;;;;;;13.92;87.39;99704.56;5013368;28;20343;-61
2021/07/08 01:00:35;;;;;;;;;;;;;;;13.98;86.34;99711.66;5012952;28;19917;-62
2021/07/08 01:03:00;;;;;;;;;;;;;;;13.91;86.66;99718.31;5014427;28;20271;-61
2021/07/08 01:05:30;;;;;;;;;;;;;;;13.86;85.87;99716.34;5015998;28;19917;-62
2021/07/08 01:07:55;;;;;;;;;;;;;;;13.62;86.24;99715.78;5034274;28;19909;-62
2021/07/08 01:10:21;;;;;;;;;;;;;;;13.46;87.85;99717.50;5033799;28;19939;-61
2021/07/08 01:12:46;;;;;;;;;;;;;;;13.36;89.46;99707.41;5034125;28;20367;-61
2021/07/08 01:15:11;;;;;;;;;;;;;;;13.48;89.16;99709.97;5033839;28;20016;-61
2021/07/08 01:17:37;;;;;;;;;;;;;;;13.69;89.15;99705.66;5033990;28;19921;-61
2021/07/08 01:20:04;;;;;;;;;;;;;;;13.84;88.44;99710.41;5033872;28;19913;-61
2021/07/08 01:22:29;;;;;;;;;;;;;;;13.89;87.65;99702.38;5033880;28;20386;-62
2021/07/08 01:24:54;;;;;;;;;;;;;;;13.83;87.24;99700.69;5032674;28;20365;-61
2021/07/08 01:27:19;;;;;;;;;;;;;;;13.77;87.20;99701.69;4996989;28;19913;-61
2021/07/08 01:29:44;;;;;;;;;;;;;;;13.72;86.40;99698.94;5012980;28;19917;-62
2021/07/08 01:32:10;;;;;;;;;;;;;;;13.71;86.90;99695.44;5029855;28;19921;-62
2021/07/08 01:34:35;;;;;;;;;;;;;;;13.70;87.09;99685.72;5033535;28;19917;-62
2021/07/08 01:37:00;;;;;;;;;;;;;;;13.69;86.64;99694.06;5033249;28;19921;-62
2021/07/08 01:39:26;;;;;;;;;;;;;;;13.65;86.87;99698.31;5033539;28;19920;-61
2021/07/08 01:41:51;;;;;;;;;;;;;;;13.49;86.11;99695.44;5033176;28;19913;-62
2021/07/08 01:44:17;;;;;;;;;;;;;;;13.55;86.82;99699.84;5033580;28;20003;-62
2021/07/08 01:46:42;;;;;;;;;;;;;;;13.38;86.85;99704.47;5033307;28;19913;-62
2021/07/08 01:49:07;;;;;;;;;;;;;;;13.42;87.44;99708.28;5032451;28;19913;-61
2021/07/08 01:51:34;;;;;;;;;;;;;;;13.43;86.88;99701.00;5032719;28;20335;-61
2021/07/08 01:53:59;;;;;;;;;;;;;;;13.40;86.76;99704.19;5033502;28;19909;-62
2021/07/08 01:56:25;;;;;;;;;;;;;;;13.42;87.96;99707.47;5031619;28;19917;-61
2021/07/08 01:58:52;;;;;;;;;;;;;;;13.30;87.60;99699.50;5033712;28;19966;-62
2021/07/08 02:01:17;;;;;;;;;;;;;;;13.37;88.31;99698.25;5033087;28;20007;-61
2021/07/08 02:03:42;;;;;;;;;;;;;;;13.45;87.91;99697.00;5033140;28;19956;-62
2021/07/08 02:06:08;;;;;;;;;;;;;;;13.42;87.52;99692.13;5032913;28;19980;-62
2021/07/08 02:08:33;;;;;;;;;;;;;;;13.38;87.29;99693.69;5033208;28;19920;-62
2021/07/08 02:10:58;;;;;;;;;;;;;;;13.43;87.94;99690.22;5032785;28;20197;-61
2021/07/08 02:13:23;;;;;;;;;;;;;;;13.47;86.82;99694.06;5033251;28;19921;-62
2021/07/08 02:15:49;;;;;;;;;;;;;;;13.38;86.30;99683.72;5032899;28;19929;-62
2021/07/08 02:18:14;;;;;;;;;;;;;;;13.44;87.11;99687.31;5031986;28;19920;-62
2021/07/08 02:20:39;;;;;;;;;;;;;;;13.44;87.09;99686.50;5032849;28;19960;-61
2021/07/08 02:23:05;;;;;;;;;;;;;;;13.28;87.95;99693.53;5033248;28;20283;-62
2021/07/08 02:25:30;;;;;;;;;;;;;;;13.31;87.83;99688.47;5032665;28;19917;-62
2021/07/08 02:27:55;;;;;;;;;;;;;;;13.35;88.16;99691.47;5033380;28;19913;-62
2021/07/08 02:30:21;;;;;;;;;;;;;;;13.30;86.70;99683.34;5031369;28;20008;-61
2021/07/08 02:32:48;;;;;;;;;;;;;;;13.28;86.77;99680.06;5031839;28;19913;-61
2021/07/08 02:35:14;;;;;;;;;;;;;;;13.25;86.72;99678.66;5032680;28;20056;-62
2021/07/08 02:37:39;;;;;;;;;;;;;;;13.16;86.85;99677.47;5032996;28;20351;-62
2021/07/08 02:40:05;;;;;;;;;;;;;;;13.02;88.15;99678.88;5032477;28;19913;-62
2021/07/08 02:42:30;;;;;;;;;;;;;;;13.04;88.45;99680.28;5033116;28;19917;-62
2021/07/08 02:44:55;;;;;;;;;;;;;;;13.03;88.37;99691.28;5032861;28;19920;-61
2021/07/08 02:47:21;;;;;;;;;;;;;;;13.14;87.59;99685.78;5032638;28;19920;-61
2021/07/08 02:49:46;;;;;;;;;;;;;;;13.34;86.53;99682.59;5032994;28;19917;-61
2021/07/08 02:52:11;;;;;;;;;;;;;;;13.43;85.88;99674.91;5032521;28;20239;-61
2021/07/08 02:54:36;;;;;;;;;;;;;;;13.40;85.99;99674.59;5032785;28;19983;-61
2021/07/08 02:57:02;;;;;;;;;;;;;;;13.20;86.22;99672.41;5031257;28;19917;-62
2021/07/08 02:59:27;;;;;;;;;;;;;;;12.81;87.90;99677.78;5032875;28;19920;-61
2021/07/08 03:01:52;;;;;;;;;;;;;;;12.92;88.82;99687.63;5017202;28;20012;-61
2021/07/08 03:04:18;;;;;;;;;;;;;;;12.88;88.53;99694.53;5014501;28;20382;-62
2021/07/08 03:06:43;;;;;;;;;;;;;;;12.99;88.33;99688.28;5030603;28;19925;-62
2021/07/08 03:09:09;;;;;;;;;;;;;;;13.06;87.24;99680.84;5036550;28;19913;-62
2021/07/08 03:11:34;;;;;;;;;;;;;;;12.99;87.65;99685.59;5036126;28;20333;-61
2021/07/08 03:13:59;;;;;;;;;;;;;;;13.01;86.90;99691.53;5036675;28;19955;-62
2021/07/08 03:16:24;;;;;;;;;;;;;;;12.98;87.18;99692.03;5035941;28;19917;-62
2021/07/08 03:18:50;;;;;;;;;;;;;;;13.00;87.68;99703.34;5036392;28;19939;-61
2021/07/08 03:21:15;;;;;;;;;;;;;;;12.97;87.16;99706.53;5024526;28;19917;-61
2021/07/08 03:23:40;;;;;;;;;;;;;;;13.12;86.73;99698.69;5016407;28;19913;-61
2021/07/08 03:26:05;;;;;;;;;;;;;;;12.95;86.85;99687.97;5024924;28;19924;-62
2021/07/08 03:28:31;;;;;;;;;;;;;;;12.69;88.02;99694.81;5036092;28;19917;-61
2021/07/08 03:30:56;;;;;;;;;;;;;;;12.66;87.63;99689.13;5035706;28;19925;-62
2021/07/08 03:33:21;;;;;;;;;;;;;;;12.49;88.72;99689.13;5036010;28;20278;-61
2021/07/08 03:35:47;;;;;;;;;;;;;;;12.42;89.46;99688.44;5035660;28;19940;-61
2021/07/08 03:38:12;;;;;;;;;;;;;;;12.66;89.44;99692.63;5035981;28;20334;-61
2021/07/08 03:40:37;;;;;;;;;;;;;;;12.83;88.87;99700.69;5030707;28;20427;-61
2021/07/08 03:43:03;;;;;;;;;;;;;;;12.80;88.21;99703.03;5016311;28;19936;-61
2021/07/08 03:45:28;;;;;;;;;;;;;;;12.85;88.28;99711.19;5019465;28;19917;-61
2021/07/08 03:47:53;;;;;;;;;;;;;;;12.91;87.95;99715.59;5034508;28;19919;-61
2021/07/08 03:50:19;;;;;;;;;;;;;;;12.91;87.88;99715.59;5035618;28;20268;-61
2021/07/08 03:52:45;;;;;;;;;;;;;;;12.95;87.80;99717.56;5034529;28;19913;-61
2021/07/08 03:55:13;;;;;;;;;;;;;;;13.08;88.01;99716.41;5035199;28;19920;-62
2021/07/08 03:57:52;;;;;;;;;;;;;;;13.12;87.05;99705.94;5035638;28;19913;-62
2021/07/08 04:00:17;;;;;;;;;;;;;;;13.16;87.33;99707.91;5033097;28;19917;-62
2021/07/08 04:02:42;;;;;;;;;;;;;;;13.15;87.30;99700.06;5015468;28;19923;-62
2021/07/08 04:05:09;;;;;;;;;;;;;;;13.22;86.95;99689.13;5016718;28;19925;-61
2021/07/08 04:07:36;;;;;;;;;;;;;;;13.13;87.24;99686.88;5035399;28;19928;-62
2021/07/08 04:10:01;;;;;;;;;;;;;;;13.20;87.10;99691.25;5035164;28;20291;-61
2021/07/08 04:12:26;;;;;;;;;;;;;;;13.18;87.14;99694.22;5035592;28;19928;-61
2021/07/08 04:14:52;;;;;;;;;;;;;;;13.21;86.59;99699.09;5033525;28;19913;-62
2021/07/08 04:17:17;;;;;;;;;;;;;;;13.22;86.14;99699.91;5034976;28;19921;-61
2021/07/08 04:19:42;;;;;;;;;;;;;;;13.25;86.17;99694.00;5035283;28;19909;-62
2021/07/08 04:22:07;;;;;;;;;;;;;;;13.16;86.83;99697.13;5034706;28;19963;-61
2021/07/08 04:24:32;;;;;;;;;;;;;;;13.19;86.35;99698.50;5035292;28;20382;-61
2021/07/08 04:26:58;;;;;;;;;;;;;;;13.17;86.70;99692.56;5018598;28;19917;-61
2021/07/08 04:29:23;;;;;;;;;;;;;;;13.32;86.86;99702.75;5015326;28;20287;-62
2021/07/08 04:31:48;;;;;;;;;;;;;;;13.27;87.08;99703.50;5029571;28;19913;-61
2021/07/08 04:34:13;;;;;;;;;;;;;;;13.23;87.02;99696.13;5034867;28;19913;-62
2021/07/08 04:36:39;;;;;;;;;;;;;;;13.21;87.14;99703.66;5034386;28;19917;-62
2021/07/08 04:39:04;;;;;;;;;;;;;;;13.08;87.34;99694.88;5035023;28;20283;-61
2021/07/08 04:41:29;;;;;;;;;;;;;;;13.19;87.66;99700.41;5022128;28;19925;-62
2021/07/08 04:43:55;;;;;;;;;;;;;;;13.26;86.97;99701.84;5013700;28;19913;-61
2021/07/08 04:46:20;;;;;;;;;;;;;;;13.44;87.04;99691.88;5025268;28;20447;-62
2021/07/08 04:48:45;;;;;;;;;;;;;;;13.60;86.40;99685.59;5034683;28;19913;-62
2021/07/08 04:51:11;;;;;;;;;;;;;;;13.66;86.42;99684.59;5034304;28;19936;-61
2021/07/08 04:53:36;;;;;;;;;;;;;;;13.65;86.05;99692.94;5034653;28;19913;-61
2021/07/08 04:56:02;;;;;;;;;;;;;;;13.63;86.85;99695.91;5033956;28;20363;-62
2021/07/08 04:58:27;;;;;;;;;;;;;;;13.63;88.83;99703.13;5034456;28;20016;-62
2021/07/08 05:00:52;;;;;;;;;;;;;;;13.64;86.56;99692.13;5034054;28;19917;-62
2021/07/08 05:03:18;;;;;;;;;;;;;;;13.65;85.91;99706.41;5032855;28;20449;-62
2021/07/08 05:05:43;;;;;;;;;;;;;;;13.71;86.13;99702.72;5033798;28;20393;-62
2021/07/08 05:08:08;;;;;;;;;;;;;;;13.87;86.07;99701.81;5034479;28;19959;-62
2021/07/08 05:10:33;;;;;;;;;;;;;;;13.85;86.33;99706.63;5033950;28;19985;-62
2021/07/08 05:13:00;;;;;;;;;;;;;;;13.88;86.15;99703.44;5034155;28;19988;-62
2021/07/08 05:15:25;;;;;;;;;;;;;;;13.90;86.99;99706.69;5030473;28;19970;-62
2021/07/08 05:17:50;;;;;;;;;;;;;;;13.98;86.55;99697.38;5014491;28;20181;-61
2021/07/08 05:20:16;;;;;;;;;;;;;;;13.80;86.94;99695.78;5016280;28;19913;-62
2021/07/08 05:22:41;;;;;;;;;;;;;;;13.96;87.00;99700.31;5034586;28;19920;-61
2021/07/08 05:25:07;;;;;;;;;;;;;;;14.12;85.66;99705.84;5033729;28;19959;-62
2021/07/08 05:27:33;;;;;;;;;;;;;;;14.35;85.09;99697.47;5032333;28;19913;-62
2021/07/08 05:29:59;;;;;;;;;;;;;;;14.53;84.05;99703.56;5034101;28;20363;-63
2021/07/08 05:32:25;;;;;;;;;;;;;;;14.85;83.04;99700.84;5033423;28;19932;-62
2021/07/08 05:34:50;;;;;;;;;;;;;;;15.64;80.10;99705.34;5032610;28;19913;-62
2021/07/08 05:37:15;;;;;;;;;;;;;;;17.03;73.97;99704.50;5033310;28;20359;-62
2021/07/08 05:39:40;;;;;;;;;;;;;;;18.46;68.65;99707.69;5033776;28;20351;-62
2021/07/08 05:42:06;;;;;;;;;;;;;;;19.60;64.00;99718.03;5033360;28;20009;-62
2021/07/08 05:44:32;;;;;;;;;;;;;;;20.86;58.99;99721.13;5033795;28;19923;-62
2021/07/08 05:46:57;;;;;;;;;;;;;;;20.88;59.25;99729.81;5033417;28;19917;-60
2021/07/08 05:49:22;;;;;;;;;;;;;;;21.38;57.96;99742.84;5032482;28;19927;-61
2021/07/08 05:51:48;;;;;;;;;;;;;;;21.28;58.09;99741.09;5018601;28;19918;-62
2021/07/08 05:54:13;;;;;;;;;;;;;;;21.38;58.04;99752.94;5013886;28;19936;-61
2021/07/08 05:56:38;;;;;;;;;;;;;;;22.29;55.51;99755.78;5026723;28;20004;-62
2021/07/08 05:59:03;;;;;;;;;;;;;;;22.33;55.57;99755.94;5032463;28;20279;-62
2021/07/08 06:01:29;;;;;;;;;;;;;;;22.86;53.28;99752.50;5033450;28;19917;-62
2021/07/08 06:03:54;;;;;;;;;;;;;;;21.81;56.77;99761.66;5033335;28;19917;-62
2021/07/08 06:06:19;;;;;;;;;;;;;;;22.04;56.31;99759.84;5022275;28;19921;-62
2021/07/08 06:08:45;;;;;;;;;;;;;;;23.45;50.94;99766.84;5013913;28;19956;-62
2021/07/08 06:11:10;;;;;;;;;;;;;;;21.83;55.08;99758.63;5021628;28;19986;-62
2021/07/08 06:13:36;;;;;;;;;;;;;;;23.64;50.14;99754.88;5033384;28;19928;-62
2021/07/08 06:16:01;;;;;;;;;;;;;;;25.61;45.69;99760.97;5032962;28;19921;-62
2021/07/08 06:18:26;;;;;;;;;;;;;;;27.29;41.14;99763.75;5033573;28;19913;-62
2021/07/08 06:20:52;;;;;;;;;;;;;;;27.83;40.47;99765.50;5033009;28;19912;-62
2021/07/08 06:23:19;;;;;;;;;;;;;;;28.55;38.23;99762.97;5033424;28;19920;-62
2021/07/08 06:25:45;;;;;;;;;;;;;;;27.84;39.51;99767.13;5032940;28;19917;-62
2021/07/08 06:28:10;;;;;;;;;;;;;;;28.86;37.21;99767.81;5033430;28;19916;-62
2021/07/08 06:30:36;;;;;;;;;;;;;;;27.86;39.41;99771.16;5032825;28;19924;-62
2021/07/08 06:33:01;;;;;;;;;;;;;;;28.44;38.18;99779.19;5033285;28;20000;-62
2021/07/08 06:35:26;;;;;;;;;;;;;;;28.99;36.33;99780.38;5032634;28;20429;-62
2021/07/08 06:37:51;;;;;;;;;;;;;;;28.99;36.42;99776.81;5034480;28;19916;-62
2021/07/08 06:40:17;;;;;;;;;;;;;;;29.27;36.19;99785.06;5036769;28;20319;-62
2021/07/08 06:42:43;;;;;;;;;;;;;;;27.60;38.62;99787.97;5037108;28;19951;-62
2021/07/08 06:45:12;;;;;;;;;;;;;;;26.35;41.43;99789.78;5035494;28;19917;-62
2021/07/08 06:47:39;;;;;;;;;;;;;;;26.18;41.52;99792.66;5035864;28;20255;-62
2021/07/08 06:50:07;;;;;;;;;;;;;;;28.46;38.25;99792.66;5036739;28;19913;-63
2021/07/08 06:52:32;;;;;;;;;;;;;;;30.58;33.94;99801.59;5037206;28;19912;-62
2021/07/08 06:54:58;;;;;;;;;;;;;;;28.65;37.23;99794.78;5035728;28;20282;-62
2021/07/08 06:57:23;;;;;;;;;;;;;;;30.43;34.29;99794.94;5036594;28;19932;-62
2021/07/08 06:59:48;;;;;;;;;;;;;;;26.95;40.90;99787.69;5035739;28;20364;-62
2021/07/08 07:02:13;;;;;;;;;;;;;;;26.07;43.19;99778.50;5035853;28;19921;-62
2021/07/08 07:04:39;;;;;;;;;;;;;;;26.77;41.89;99784.31;5036882;28;20322;-62
2021/07/08 07:07:04;;;;;;;;;;;;;;;26.04;44.05;99799.19;5036480;28;19921;-62
2021/07/08 07:09:29;;;;;;;;;;;;;;;27.12;42.08;99792.22;5035623;28;20339;-62
2021/07/08 07:11:55;;;;;;;;;;;;;;;28.25;39.63;99801.84;5036379;28;19917;-62
2021/07/08 07:14:20;;;;;;;;;;;;;;;26.75;41.87;99803.06;5036595;28;19919;-62
2021/07/08 07:16:45;;;;;;;;;;;;;;;28.29;39.20;99800.00;5036159;28;19917;-62
2021/07/08 07:19:10;;;;;;;;;;;;;;;26.45;43.83;99803.13;5035316;28;20568;-62
2021/07/08 07:21:36;;;;;;;;;;;;;;;26.00;43.86;99803.72;5034875;28;19923;-62
2021/07/08 07:24:02;;;;;;;;;;;;;;;24.80;47.62;99800.19;5036604;28;20286;-62
2021/07/08 07:26:27;;;;;;;;;;;;;;;24.66;49.60;99795.69;5035991;28;19917;-62
2021/07/08 07:28:53;;;;;;;;;;;;;;;25.05;48.11;99796.59;5036411;28;19936;-62
2021/07/08 07:31:18;;;;;;;;;;;;;;;25.82;47.00;99796.69;5035943;28;19917;-62
2021/07/08 07:33:43;;;;;;;;;;;;;;;28.84;39.49;99803.22;5036311;28;19920;-62
2021/07/08 07:36:10;;;;;;;;;;;;;;;30.10;36.65;99796.19;5034530;28;19932;-62
2021/07/08 07:38:35;;;;;;;;;;;;;;;31.27;34.51;99796.22;5036351;28;19920;-62
2021/07/08 07:41:00;;;;;;;;;;;;;;;31.09;34.63;99791.16;5027875;28;19917;-63
2021/07/08 07:43:26;;;;;;;;;;;;;;;31.33;34.18;99783.69;5016370;28;19920;-62
2021/07/08 07:45:51;;;;;;;;;;;;;;;31.28;34.89;99778.47;5022684;28;19952;-63
2021/07/08 07:48:17;;;;;;;;;;;;;;;31.55;34.15;99765.47;5036003;28;20380;-62
2021/07/08 07:50:44;;;;;;;;;;;;;;;29.96;37.42;99762.72;5034704;28;19921;-62
2021/07/08 07:53:10;;;;;;;;;;;;;;;30.01;37.63;99765.19;5036077;28;19913;-62
2021/07/08 07:55:35;;;;;;;;;;;;;;;30.92;35.73;99773.06;5030511;28;20004;-63
2021/07/08 07:58:00;;;;;;;;;;;;;;;31.32;35.28;99771.00;5016093;28;19913;-62
2021/07/08 08:00:26;;;;;;;;;;;;;;;29.97;37.21;99769.84;5019023;28;20386;-62
2021/07/08 08:02:52;;;;;;;;;;;;;;;30.23;36.77;99772.81;5034401;28;19951;-62
2021/07/08 08:10:26;;;;;;;;;;;;;;;32.34;33.25;99758.34;5019075;28;20307;-62
2021/07/08 08:12:52;;;;;;;;;;;;;;;29.44;38.41;99754.34;5035611;28;19913;-63
2021/07/08 08:15:18;;;;;;;;;;;;;;;28.15;41.82;99756.28;5034849;28;19956;-62
2021/07/08 08:17:44;;;;;;;;;;;;;;;27.46;43.12;99754.47;5035437;28;19913;-62
2021/07/08 08:20:09;;;;;;;;;;;;;;;26.77;45.00;99754.06;5035226;28;19908;-62
2021/07/08 08:22:37;;;;;;;;;;;;;;;27.11;43.65;99752.91;5033951;28;19935;-62
2021/07/08 08:25:03;;;;;;;;;;;;;;;27.30;43.81;99757.88;5034591;28;19913;-62
2021/07/08 08:27:28;;;;;;;;;;;;;;;26.82;44.16;99753.84;5015421;28;19916;-61
2021/07/08 08:29:53;;;;;;;;;;;;;;;26.38;45.50;99747.09;5015786;28;20263;-61
2021/07/08 08:32:18;;;;;;;;;;;;;;;26.79;44.50;99751.78;5013680;28;19919;-61
2021/07/08 08:34:44;;;;;;;;;;;;;;;26.60;45.97;99760.50;5015184;28;20410;-61
2021/07/08 08:37:09;;;;;;;;;;;;;;;26.84;44.97;99757.06;5032434;28;20050;-61
2021/07/08 08:39:34;;;;;;;;;;;;;;;26.97;44.38;99757.09;5035109;28;19909;-61
2021/07/08 08:41:59;;;;;;;;;;;;;;;27.31;43.77;99756.75;5034517;28;20298;-61
2021/07/08 08:44:25;;;;;;;;;;;;;;;26.43;46.10;99755.13;5035041;28;19913;-61
2021/07/08 08:46:51;;;;;;;;;;;;;;;26.16;46.07;99760.03;5034576;28;20347;-61
2021/07/08 08:49:16;;;;;;;;;;;;;;;26.35;46.56;99758.75;5034961;28;19920;-61
2021/07/08 08:51:41;;;;;;;;;;;;;;;27.42;43.33;99767.31;5034450;28;19917;-61
2021/07/08 08:54:06;;;;;;;;;;;;;;;26.67;44.05;99766.28;5034780;28;20001;-61
2021/07/08 08:56:32;;;;;;;;;;;;;;;27.66;41.13;99766.53;5021371;28;19917;-61
2021/07/08 08:58:57;;;;;;;;;;;;;;;27.98;41.45;99766.75;5014861;28;19913;-62
2021/07/08 09:01:22;;;;;;;;;;;;;;;28.80;38.30;99771.94;5025049;28;20012;-61
2021/07/08 09:03:47;;;;;;;;;;;;;;;27.70;41.17;99765.47;5034364;28;19917;-62
2021/07/08 09:06:13;;;;;;;;;;;;;;;26.21;44.68;99775.53;5034150;28;20371;-62
2021/07/08 09:08:39;;;;;;;;;;;;;;;26.02;45.29;99770.47;5033316;28;19913;-61
2021/07/08 09:11:07;;;;;;;;;;;;;;;26.14;46.18;99772.50;5034030;28;20283;-62
2021/07/08 09:13:41;;;;;;;;;;;;;;;26.66;45.06;99781.16;5034230;28;19924;-61
2021/07/08 09:16:13;;;;;;;;;;;;;;;25.85;46.49;99778.75;5033731;28;19917;-62
2021/07/08 09:18:38;;;;;;;;;;;;;;;25.73;46.35;99766.53;5034226;28;20359;-62
2021/07/08 09:21:16;;;;;;;;;;;;;;;25.64;46.84;99762.25;5033944;28;19917;-61
2021/07/08 09:24:00;;;;;;;;;;;;;;;25.82;46.14;99761.00;5034187;28;20414;-61
2021/07/08 09:26:25;;;;;;;;;;;;;;;26.33;45.71;99755.53;5021961;28;19924;-62
2021/07/08 09:28:52;;;;;;;;;;;;;;;26.65;44.61;99756.75;5014041;28;20004;-61
2021/07/08 09:31:17;;;;;;;;;;;;;;;26.78;44.30;99761.16;5022869;28;19917;-62
2021/07/08 09:33:43;;;;;;;;;;;;;;;24.48;49.00;99761.19;5033557;28;19922;-62
2021/07/08 09:36:14;;;;;;;;;;;;;;;25.23;48.66;99758.19;5033208;28;19948;-61
2021/07/08 09:38:40;;;;;;;;;;;;;;;25.14;49.08;99752.72;5033542;28;20012;-62
2021/07/08 09:41:13;;;;;;;;;;;;;;;25.11;48.35;99754.19;5033245;28;19957;-61
2021/07/08 09:43:39;;;;;;;;;;;;;;;25.95;46.65;99762.72;5033578;28;19913;-61
2021/07/08 09:46:04;;;;;;;;;;;;;;;25.94;47.21;99760.34;5033307;28;19980;-62
2021/07/08 09:48:30;;;;;;;;;;;;;;;26.21;46.97;99753.53;5033515;28;20316;-61
2021/07/08 09:50:56;;;;;;;;;;;;;;;26.10;46.35;99766.03;5033001;28;19971;-61
2021/07/08 09:53:24;;;;;;;;;;;;;;;25.47;46.98;99755.69;5033142;28;19923;-61
2021/07/08 09:58:49;;;;;;;;;;;;;;;24.90;47.59;99745.03;5033945;28;20252;-62
2021/07/08 10:01:14;;;;;;;;;;;;;;;25.27;47.93;99750.94;5032972;28;19917;-61
2021/07/08 10:03:40;;;;;;;;;;;;;;;26.00;44.44;99759.78;5031891;28;20015;-62
2021/07/08 10:06:05;;;;;;;;;;;;;;;26.16;44.40;99756.47;5032732;28;20297;-62
2021/07/08 10:08:31;;;;;;;;;;;;;;;26.03;44.42;99758.31;5033218;28;19917;-61
2021/07/08 10:10:56;;;;;;;;;;;;;;;26.89;43.06;99750.56;5032788;28;19925;-61
2021/07/08 10:13:21;;;;;;;;;;;;;;;27.73;39.34;99742.78;5031609;28;19924;-62
2021/07/08 10:15:47;;;;;;;;;;;;;;;27.79;39.73;99745.31;5032662;28;19917;-62
2021/07/08 10:18:12;;;;;;;;;;;;;;;26.71;42.26;99758.16;5031350;28;20035;-61
2021/07/08 10:20:38;;;;;;;;;;;;;;;25.99;43.19;99754.66;5027792;28;19968;-62
2021/07/08 10:23:03;;;;;;;;;;;;;;;25.29;45.50;99746.72;5013311;28;19954;-62
2021/07/08 10:25:28;;;;;;;;;;;;;;;26.04;44.20;99746.22;5011752;28;19913;-61
2021/07/08 10:27:54;;;;;;;;;;;;;;;25.61;43.77;99742.56;5013172;28;19913;-62
2021/07/08 10:30:21;;;;;;;;;;;;;;;24.83;43.78;99739.22;5012937;28;19913;-61
2021/07/08 10:32:52;;;;;;;;;;;;;;;24.73;44.33;99738.44;5013365;28;19914;-61
2021/07/08 10:35:29;;;;;;;;;;;;;;;23.74;46.03;99738.19;5011647;28;19944;-61
2021/07/08 10:37:54;;;;;;;;;;;;;;;24.25;46.16;99731.16;5012047;28;19914;-61
2021/07/08 10:40:27;;;;;;;;;;;;;;;24.31;45.01;99729.91;5013055;28;19952;-62
2021/07/08 10:42:53;;;;;;;;;;;;;;;24.45;44.41;99717.97;5013547;28;19913;-61
2021/07/08 10:45:22;;;;;;;;;;;;;;;23.80;45.97;99725.16;5011701;28;19913;-61
2021/07/08 10:47:47;;;;;;;;;;;;;;;23.16;47.11;99722.78;5013455;28;20319;-61
2021/07/08 10:50:31;;;;;;;;;;;;;;;23.28;48.34;99725.75;5011505;28;19914;-61
2021/07/08 10:52:56;;;;;;;;;;;;;;;23.88;47.32;99722.41;5013093;28;20363;-61
2021/07/08 10:55:33;;;;;;;;;;;;;;;23.43;48.78;99728.06;5027761;28;19959;-61
2021/07/08 10:57:58;;;;;;;;;;;;;;;23.57;48.50;99721.69;5012799;28;20004;-61
2021/07/08 11:00:43;;;;;;;;;;;;;;;23.29;49.30;99721.91;5016031;28;20003;-60
2021/07/08 11:03:26;;;;;;;;;;;;;;;23.38;49.46;99719.19;5032569;28;19917;-61
2021/07/08 11:05:55;;;;;;;;;;;;;;;22.82;50.45;99729.66;5031119;28;20008;-61
2021/07/08 11:08:39;;;;;;;;;;;;;;;23.32;49.67;99728.66;5032699;28;20359;-61
2021/07/08 11:11:04;;;;;;;;;;;;;;;23.02;50.80;99723.69;5032416;28;19917;-61
2021/07/08 11:13:30;;;;;;;;;;;;;;;22.66;51.41;99731.94;5031391;28;19960;-60
2021/07/08 11:15:55;;;;;;;;;;;;;;;22.29;52.49;99742.13;5023397;28;19918;-63
2021/07/08 11:18:32;;;;;;;;;;;;;;;21.86;52.87;99738.94;5012955;28;19913;-61
2021/07/08 11:20:58;;;;;;;;;;;;;;;21.63;53.42;99744.28;5020342;28;20401;-61
2021/07/08 11:23:36;;;;;;;;;;;;;;;21.26;52.92;99747.97;5032873;28;20012;-62
2021/07/08 11:26:01;;;;;;;;;;;;;;;20.97;53.57;99768.13;5034999;28;20399;-60
2021/07/08 11:28:28;;;;;;;;;;;;;;;20.69;55.10;99791.69;5036274;28;20206;-61
2021/07/08 11:30:57;;;;;;;;;;;;;;;20.42;56.97;99809.50;5027404;28;20276;-62
2021/07/08 11:33:22;;;;;;;;;;;;;;;20.02;60.82;99817.09;5016292;28;19917;-63
2021/07/08 11:35:55;;;;;;;;;;;;;;;19.38;65.22;99810.13;5016165;28;19917;-63
2021/07/08 11:38:20;;;;;;;;;;;;;;;17.98;77.24;99833.00;5016467;28;19914;-64
2021/07/08 11:40:47;;;;;;;;;;;;;;;17.49;79.78;99835.53;5022079;28;19939;-64
2021/07/08 11:45:49;;;;;;;;;;;;;;;16.60;76.58;99860.91;5609537;23;19926;-64
2021/07/08 11:48:24;;;;;;;;;;;;;;;16.66;76.62;99869.06;4976886;28;19925;-63
2021/07/08 11:50:49;;;;;;;;;;;;;;;16.73;74.96;99872.31;4976721;28;19918;-63
2021/07/08 11:53:14;;;;;;;;;;;;;;;16.39;77.44;99872.75;4977119;28;19968;-63
2021/07/08 11:55:44;;;;;;;;;;;;;;;15.98;83.72;99850.13;4976446;28;19918;-63
2021/07/08 11:58:09;;;;;;;;;;;;;;;15.44;83.28;99848.41;4976041;28;20343;-63
2021/07/08 12:00:38;;;;;;;;;;;;;;;15.50;83.27;99841.97;4976540;28;19954;-63
2021/07/08 12:03:22;;;;;;;;;;;;;;;15.69;83.73;99856.72;4977227;28;19914;-63
2021/07/08 12:05:48;;;;;;;;;;;;;;;15.89;83.55;99866.03;4976606;28;19972;-64
2021/07/08 12:08:21;;;;;;;;;;;;;;;16.04;82.31;99865.28;4977033;28;19914;-63
2021/07/08 12:10:47;;;;;;;;;;;;;;;16.19;81.36;99854.53;4976729;28;20264;-63
2021/07/08 12:13:15;;;;;;;;;;;;;;;16.14;79.16;99863.44;4977105;28;19921;-63
2021/07/08 12:15:40;;;;;;;;;;;;;;;16.14;80.58;99857.22;4975036;28;19918;-63
2021/07/08 12:18:05;;;;;;;;;;;;;;;16.26;80.63;99857.81;4975785;28;19921;-63
2021/07/08 12:20:36;;;;;;;;;;;;;;;16.22;81.21;99858.63;4975961;28;19930;-63
2021/07/08 12:23:04;;;;;;;;;;;;;;;16.22;81.65;99853.19;4975566;28;20028;-63
2021/07/08 12:25:30;;;;;;;;;;;;;;;16.48;80.99;99851.41;4976524;28;20380;-63
2021/07/08 12:27:56;;;;;;;;;;;;;;;16.13;81.76;99851.00;4976676;28;20380;-63
2021/07/08 12:30:28;;;;;;;;;;;;;;;16.29;80.65;99843.75;4976106;28;19925;-63
2021/07/08 12:33:12;;;;;;;;;;;;;;;16.37;79.71;99839.72;4975347;28;20028;-63
2021/07/08 12:35:41;;;;;;;;;;;;;;;16.26;80.30;99844.31;4975677;28;19961;-63
2021/07/08 12:38:06;;;;;;;;;;;;;;;16.36;80.43;99830.00;4976374;28;20373;-63
2021/07/08 12:40:31;;;;;;;;;;;;;;;16.22;80.31;99831.56;4976022;28;19953;-63
2021/07/08 12:42:58;;;;;;;;;;;;;;;16.23;80.35;99817.00;4975441;28;20379;-63
2021/07/08 12:45:28;;;;;;;;;;;;;;;16.22;81.53;99820.75;4974506;28;20475;-63
2021/07/08 12:47:54;;;;;;;;;;;;;;;15.91;82.50;99820.63;4976451;28;19914;-63
2021/07/08 12:50:20;;;;;;;;;;;;;;;16.09;83.44;99822.06;4974710;28;19920;-63
2021/07/08 12:52:45;;;;;;;;;;;;;;;16.02;82.84;99819.59;4976110;28;19914;-63
2021/07/08 12:55:29;;;;;;;;;;;;;;;15.93;84.44;99829.31;4975868;28;19914;-63